Time;durP1;ratioP1;P1;durP2;ratioP2;P2;SDS_P1;SDS_P2;PMS_P1;PMS_P2;Temp;Humidity;BMP_temperature;BMP_pressure;BME280_temperature;BME280_humidity;BME280_pressure;Samples;Min_cycle;Max_cycle;Signal;HPM_P1;HPM_P2
2022/01/09 00:00:46;;;;;;;2.40;2.00;;;6.40;72.20;6.40;94786.00;;;;5053402;28;20224;-85
2022/01/09 00:03:14;;;;;;;1.50;1.40;;;6.40;72.30;6.40;94779.00;;;;5050022;28;20232;-84
2022/01/09 00:05:41;;;;;;;1.73;1.60;;;6.40;72.40;6.40;94773.00;;;;5051858;28;20271;-85
2022/01/09 00:08:08;;;;;;;1.50;1.40;;;6.40;72.50;6.40;94766.00;;;;5052676;28;20185;-85
2022/01/09 00:10:35;;;;;;;1.67;1.50;;;6.40;72.40;6.50;94762.00;;;;5052951;28;20227;-84
2022/01/09 00:13:03;;;;;;;2.07;1.90;;;6.40;72.30;6.50;94759.00;;;;5052681;28;20196;-85
2022/01/09 00:15:30;;;;;;;1.83;1.30;;;6.40;72.30;6.50;94759.00;;;;5052173;28;20570;-85
2022/01/09 00:17:58;;;;;;;1.83;1.50;;;6.40;71.90;6.50;94750.00;;;;5055519;28;20223;-84
2022/01/09 00:20:26;;;;;;;1.90;1.80;;;6.50;72.00;6.50;94743.00;;;;5052823;28;20592;-85
2022/01/09 00:22:53;;;;;;;1.80;1.70;;;6.50;71.90;6.50;94738.00;;;;5052685;28;20647;-84
2022/01/09 00:25:22;;;;;;;2.07;1.53;;;6.50;71.70;6.50;94736.00;;;;5052252;28;20290;-85
2022/01/09 00:27:51;;;;;;;1.80;1.70;;;6.50;71.90;6.60;94741.00;;;;5052635;28;20193;-85
2022/01/09 00:30:22;;;;;;;1.67;1.57;;;6.50;71.90;6.50;94726.00;;;;5037128;28;20229;-84
2022/01/09 00:32:49;;;;;;;1.73;1.63;;;6.50;71.60;6.60;94738.00;;;;5052698;28;20199;-85
2022/01/09 00:35:18;;;;;;;1.70;1.60;;;6.50;71.60;6.60;94715.00;;;;5035175;28;20203;-85
2022/01/09 00:37:46;;;;;;;2.20;1.70;;;6.50;71.50;6.60;94727.00;;;;5044590;28;20223;-85
2022/01/09 00:40:15;;;;;;;3.13;2.00;;;6.60;71.60;6.60;94718.00;;;;5040288;28;20589;-84
2022/01/09 00:42:44;;;;;;;1.70;1.60;;;6.60;71.10;6.60;94727.00;;;;5051060;28;20197;-84
2022/01/09 00:45:18;;;;;;;1.77;1.67;;;6.60;71.30;6.60;94730.00;;;;5045674;28;20189;-85
2022/01/09 00:47:46;;;;;;;3.23;2.20;;;6.60;71.10;6.60;94721.00;;;;5052079;28;20191;-85
2022/01/09 00:50:15;;;;;;;2.07;1.97;;;6.60;71.60;6.60;94734.00;;;;5036493;28;20224;-85
2022/01/09 00:52:44;;;;;;;1.90;1.80;;;6.60;71.60;6.70;94731.00;;;;5047852;28;20197;-84
2022/01/09 00:55:12;;;;;;;2.33;2.00;;;6.70;71.60;6.70;94732.00;;;;5043409;28;20191;-85
2022/01/09 00:57:39;;;;;;;2.30;2.10;;;6.60;71.40;6.70;94722.00;;;;5051792;28;20204;-85
2022/01/09 01:00:09;;;;;;;1.97;1.60;;;6.70;71.50;6.70;94712.00;;;;5051840;28;20216;-85
2022/01/09 01:02:36;;;;;;;2.03;1.93;;;6.70;71.30;6.70;94714.00;;;;5050881;28;20207;-85
2022/01/09 01:05:04;;;;;;;3.67;3.30;;;6.70;71.40;6.70;94705.00;;;;5038296;28;20200;-85
2022/01/09 01:07:31;;;;;;;2.93;2.63;;;6.70;71.10;6.70;94702.00;;;;5048765;28;20483;-85
2022/01/09 01:10:00;;;;;;;2.33;2.00;;;6.70;71.00;6.70;94682.00;;;;5044605;28;20212;-85
2022/01/09 01:12:29;;;;;;;2.60;1.93;;;6.70;71.20;6.70;94685.00;;;;5048552;28;20236;-85
2022/01/09 01:14:57;;;;;;;1.87;1.67;;;6.70;71.20;6.70;94688.00;;;;5051677;28;20677;-85
2022/01/09 01:17:25;;;;;;;2.13;1.93;;;6.70;71.20;6.70;94703.00;;;;5048185;28;20192;-85
2022/01/09 01:19:54;;;;;;;1.90;1.70;;;6.70;71.10;6.70;94699.00;;;;5040643;28;20217;-85
2022/01/09 01:22:22;;;;;;;1.57;1.47;;;6.70;71.00;6.80;94699.00;;;;5042665;28;20243;-85
2022/01/09 01:24:50;;;;;;;2.10;2.00;;;6.70;71.00;6.80;94700.00;;;;5036110;28;20188;-85
2022/01/09 01:27:18;;;;;;;2.60;2.40;;;6.70;71.10;6.80;94708.00;;;;5051460;28;20197;-84
2022/01/09 01:29:45;;;;;;;2.33;2.13;;;6.70;71.10;6.80;94693.00;;;;5052006;28;20535;-85
2022/01/09 01:32:12;;;;;;;2.47;2.10;;;6.70;70.70;6.80;94679.00;;;;5044554;28;20217;-84
2022/01/09 01:34:40;;;;;;;2.10;2.00;;;6.70;70.40;6.80;94668.00;;;;5043511;28;20192;-84
2022/01/09 01:37:07;;;;;;;2.93;2.10;;;6.70;70.50;6.80;94666.00;;;;5036472;28;20208;-84
2022/01/09 01:39:36;;;;;;;1.60;1.50;;;6.70;70.90;6.80;94653.00;;;;5040050;28;20219;-84
2022/01/09 01:42:04;;;;;;;1.73;1.63;;;6.70;70.80;6.80;94658.00;;;;5051268;28;20262;-85
2022/01/09 01:44:41;;;;;;;1.70;1.60;;;6.80;71.00;6.80;94656.00;;;;5050986;28;20199;-85
2022/01/09 01:47:09;;;;;;;1.80;1.47;;;6.80;70.60;6.80;94650.00;;;;5040339;28;20197;-84
2022/01/09 01:49:36;;;;;;;1.80;1.70;;;6.80;70.90;6.80;94643.00;;;;5040758;28;20300;-84
2022/01/09 01:52:05;;;;;;;1.73;1.63;;;6.80;71.00;6.80;94636.00;;;;5050958;28;20255;-85
2022/01/09 01:54:33;;;;;;;1.60;1.50;;;6.80;71.20;6.90;94630.00;;;;5035227;28;20201;-84
2022/01/09 01:57:00;;;;;;;2.10;1.90;;;6.80;71.30;6.90;94650.00;;;;5044960;28;20229;-84
2022/01/09 01:59:27;;;;;;;1.90;1.80;;;6.80;71.10;6.90;94648.00;;;;5036561;28;20209;-84
2022/01/09 02:01:56;;;;;;;1.63;1.53;;;6.80;71.10;6.90;94620.00;;;;5045571;28;20203;-84
2022/01/09 02:04:23;;;;;;;1.60;1.50;;;6.80;71.20;6.90;94623.00;;;;5051673;28;20196;-84
2022/01/09 02:06:50;;;;;;;2.00;1.70;;;6.80;71.10;6.90;94597.00;;;;5048684;28;20203;-85
2022/01/09 02:09:17;;;;;;;1.73;1.43;;;6.80;71.00;6.90;94596.00;;;;5040511;28;20223;-84
2022/01/09 02:11:45;;;;;;;1.83;1.63;;;6.80;71.30;6.90;94607.00;;;;5051839;28;20228;-84
2022/01/09 02:14:13;;;;;;;2.13;2.00;;;6.80;71.20;6.90;94594.00;;;;5051499;28;20193;-84
2022/01/09 02:16:42;;;;;;;2.37;1.77;;;6.80;71.20;6.90;94601.00;;;;5054091;28;20201;-84
2022/01/09 02:19:14;;;;;;;1.67;1.57;;;6.80;71.30;6.90;94634.00;;;;5055180;28;20196;-84
2022/01/09 02:21:44;;;;;;;1.73;1.60;;;6.80;71.40;6.90;94630.00;;;;5054056;28;20284;-84
2022/01/09 02:24:12;;;;;;;1.80;1.67;;;6.80;71.30;6.80;94623.00;;;;5054866;28;20213;-84
2022/01/09 02:26:40;;;;;;;2.40;2.20;;;6.80;71.30;6.80;94646.00;;;;5054459;28;20231;-84
2022/01/09 02:29:07;;;;;;;1.73;1.63;;;6.80;70.90;6.80;94645.00;;;;5054034;28;20197;-85
2022/01/09 02:31:37;;;;;;;2.17;2.00;;;6.80;71.10;6.70;94648.00;;;;5045613;28;20213;-85
2022/01/09 02:34:04;;;;;;;2.03;1.83;;;6.70;71.20;6.70;94644.00;;;;5053166;28;20216;-84
2022/01/09 02:36:32;;;;;;;1.73;1.63;;;6.70;71.20;6.70;94637.00;;;;5054331;28;20196;-84
2022/01/09 02:39:00;;;;;;;1.90;1.70;;;6.70;71.40;6.70;94626.00;;;;5054936;28;20682;-84
2022/01/09 02:41:27;;;;;;;2.03;1.80;;;6.70;71.40;6.60;94612.00;;;;5057415;28;20201;-85
2022/01/09 02:43:54;;;;;;;1.87;1.67;;;6.60;71.40;6.60;94616.00;;;;5057667;28;20204;-84
2022/01/09 02:46:37;;;;;;;2.07;1.97;;;6.60;71.50;6.50;94596.00;;;;5055353;28;20196;-84
2022/01/09 02:49:06;;;;;;;1.80;1.70;;;6.50;71.70;6.50;94603.00;;;;5055010;28;20247;-84
2022/01/09 02:51:35;;;;;;;2.43;1.90;;;6.50;71.90;6.40;94589.00;;;;5055095;28;20630;-84
2022/01/09 02:55:05;;;;;;;1.87;1.73;;;6.50;72.30;6.40;94588.00;;;;5054781;28;20291;-84
2022/01/09 02:56:56;;;;;;;1.97;1.70;;;6.40;72.40;6.40;94594.00;;;;5054481;28;20219;-84
2022/01/09 02:59:23;;;;;;;2.50;2.30;;;6.40;72.70;6.40;94593.00;;;;5055018;28;20216;-84
2022/01/09 03:01:50;;;;;;;2.50;2.30;;;6.40;72.90;6.30;94581.00;;;;5046382;28;20201;-84
2022/01/09 03:04:17;;;;;;;2.23;1.80;;;6.40;73.00;6.30;94595.00;;;;5052376;28;20196;-84
2022/01/09 03:06:44;;;;;;;2.20;2.10;;;6.30;73.00;6.20;94575.00;;;;5053594;28;20211;-84
2022/01/09 03:09:12;;;;;;;2.27;2.07;;;6.30;73.10;6.20;94592.00;;;;5054429;28;20655;-84
2022/01/09 03:11:40;;;;;;;1.97;1.83;;;6.20;73.10;6.20;94587.00;;;;5054249;28;20220;-84
2022/01/09 03:14:08;;;;;;;2.03;1.87;;;6.20;73.30;6.20;94586.00;;;;5053942;28;20680;-84
2022/01/09 03:16:35;;;;;;;2.40;1.90;;;6.20;73.40;6.10;94582.00;;;;5054533;28;20196;-84
2022/01/09 03:19:03;;;;;;;1.67;1.57;;;6.20;73.50;6.10;94578.00;;;;5056869;28;20222;-84
2022/01/09 03:21:30;;;;;;;1.53;1.43;;;6.10;73.60;6.10;94575.00;;;;5054893;28;20193;-84
2022/01/09 03:23:57;;;;;;;2.10;1.97;;;6.20;73.90;6.00;94572.00;;;;5054437;28;20684;-84
2022/01/09 03:26:26;;;;;;;1.97;1.77;;;6.10;74.00;6.10;94559.00;;;;5054462;28;20254;-84
2022/01/09 03:28:52;;;;;;;1.63;1.53;;;6.10;74.30;6.10;94559.00;;;;5053901;28;20196;-84
2022/01/09 03:31:19;;;;;;;1.70;1.60;;;6.00;74.40;6.10;94566.00;;;;5054293;28;20224;-84
2022/01/09 03:33:46;;;;;;;1.50;1.40;;;6.10;74.70;6.10;94555.00;;;;5054016;28;20204;-84
2022/01/09 03:36:13;;;;;;;1.63;1.53;;;6.10;74.80;6.10;94542.00;;;;5054598;28;20568;-84
2022/01/09 03:38:40;;;;;;;1.67;1.57;;;6.10;75.00;6.10;94522.00;;;;5054711;28;20224;-84
2022/01/09 03:41:07;;;;;;;1.50;1.40;;;6.10;75.00;6.10;94530.00;;;;5053931;28;20220;-84
2022/01/09 03:43:36;;;;;;;1.70;1.60;;;6.10;75.30;6.20;94529.00;;;;5053956;28;20208;-84
2022/01/09 03:46:03;;;;;;;1.30;1.13;;;6.10;75.50;6.20;94526.00;;;;5036368;28;20575;-84
2022/01/09 03:48:32;;;;;;;1.67;1.57;;;6.10;75.90;6.20;94523.00;;;;5053934;28;20203;-84
2022/01/09 03:50:59;;;;;;;2.10;2.00;;;6.20;76.00;6.20;94510.00;;;;5045191;28;20314;-84
2022/01/09 03:53:26;;;;;;;2.00;1.90;;;6.20;76.00;6.20;94507.00;;;;5050761;28;20629;-85
2022/01/09 03:55:54;;;;;;;1.83;1.73;;;6.20;76.10;6.20;94511.00;;;;5046061;28;20239;-85
2022/01/09 03:58:22;;;;;;;1.63;1.53;;;6.20;76.20;6.30;94506.00;;;;5053090;28;20184;-85
2022/01/09 04:00:50;;;;;;;1.63;1.17;;;6.30;76.60;6.30;94503.00;;;;5052495;28;20236;-85
2022/01/09 04:03:17;;;;;;;0.87;0.87;;;6.30;76.80;6.40;94496.00;;;;5050149;28;20205;-85
2022/01/09 04:05:44;;;;;;;1.20;1.10;;;6.30;76.70;6.40;94498.00;;;;5050164;28;20196;-85
2022/01/09 04:08:12;;;;;;;0.80;0.80;;;6.40;76.80;6.40;94496.00;;;;5053317;28;20215;-85
2022/01/09 04:10:42;;;;;;;1.30;0.97;;;6.40;76.70;6.50;94491.00;;;;5051907;28;20216;-84
2022/01/09 04:13:12;;;;;;;0.70;0.70;;;7.10;77.20;6.50;94495.00;;;;5050992;28;20221;-85
2022/01/09 04:15:45;;;;;;;0.60;0.60;;;6.50;76.80;6.50;94500.00;;;;5053331;28;20200;-85
2022/01/09 04:18:15;;;;;;;0.60;0.60;;;6.50;76.90;6.60;94503.00;;;;5039087;28;20193;-85
2022/01/09 04:20:42;;;;;;;0.50;0.50;;;6.50;76.90;6.60;94499.00;;;;5051442;28;20238;-85
2022/01/09 04:23:09;;;;;;;0.63;0.63;;;6.50;76.80;6.60;94497.00;;;;5052651;28;20199;-85
2022/01/09 04:25:36;;;;;;;0.50;0.50;;;6.60;76.80;6.60;94510.00;;;;5052591;28;20203;-85
2022/01/09 04:28:04;;;;;;;0.50;0.50;;;6.60;76.90;6.70;94509.00;;;;5052024;28;20196;-86
2022/01/09 04:30:31;;;;;;;1.10;0.77;;;6.60;77.00;6.70;94517.00;;;;5042997;28;20232;-84
2022/01/09 04:32:58;;;;;;;1.30;0.67;;;6.60;76.90;6.70;94510.00;;;;5052242;28;20720;-85
2022/01/09 04:35:28;;;;;;;1.07;0.80;;;6.70;77.00;6.80;94503.00;;;;5051020;28;20283;-85
2022/01/09 04:37:57;;;;;;;0.60;0.60;;;6.70;77.60;6.80;94503.00;;;;5052352;28;20193;-85
2022/01/09 04:40:24;;;;;;;0.60;0.60;;;6.70;76.90;6.80;94514.00;;;;5052067;28;20255;-85
2022/01/09 04:42:54;;;;;;;1.07;0.67;;;6.60;76.90;6.90;94512.00;;;;5050397;28;20695;-85
2022/01/09 04:45:24;;;;;;;0.60;0.60;;;6.80;77.50;6.90;94514.00;;;;5049072;28;20545;-85
2022/01/09 04:47:52;;;;;;;0.60;0.60;;;6.80;77.10;6.90;94513.00;;;;5051820;28;20200;-85
2022/01/09 04:50:25;;;;;;;0.67;0.57;;;6.80;77.00;6.90;94508.00;;;;5051369;28;20242;-85
2022/01/09 04:52:59;;;;;;;0.83;0.50;;;6.80;76.90;7.00;94507.00;;;;5051954;28;20274;-86
2022/01/09 04:55:27;;;;;;;0.87;0.73;;;6.90;77.00;7.00;94503.00;;;;5052037;28;20220;-85
2022/01/09 04:57:54;;;;;;;0.50;0.50;;;6.90;76.90;7.00;94507.00;;;;5051918;28;20192;-85
2022/01/09 05:00:21;;;;;;;0.40;0.40;;;6.90;77.00;7.00;94515.00;;;;5051561;28;20209;-85
2022/01/09 05:02:49;;;;;;;0.60;0.50;;;7.00;77.00;7.10;94510.00;;;;5052806;28;20204;-86
2022/01/09 05:05:17;;;;;;;0.50;0.50;;;7.00;77.10;7.10;94513.00;;;;5051348;28;20199;-85
2022/01/09 05:07:44;;;;;;;0.30;0.30;;;7.00;77.20;7.10;94524.00;;;;5051821;28;20208;-85
2022/01/09 05:10:13;;;;;;;0.40;0.40;;;7.00;77.10;7.20;94521.00;;;;5051742;28;20223;-85
2022/01/09 05:12:41;;;;;;;0.40;0.40;;;7.10;77.20;7.20;94513.00;;;;5049664;28;20224;-85
2022/01/09 05:15:10;;;;;;;0.40;0.30;;;7.10;77.20;7.30;94515.00;;;;5038552;28;20192;-85
2022/01/09 05:17:37;;;;;;;1.30;0.60;;;7.10;77.20;7.30;94529.00;;;;5051043;28;20619;-85
2022/01/09 05:20:06;;;;;;;1.20;0.50;;;7.20;77.20;7.30;94522.00;;;;5051651;28;20275;-84
2022/01/09 05:22:33;;;;;;;1.13;0.50;;;7.20;77.20;7.40;94526.00;;;;5051885;28;20540;-86
2022/01/09 05:25:02;;;;;;;0.80;0.50;;;7.20;77.20;7.40;94523.00;;;;5051808;28;20196;-85
2022/01/09 05:27:30;;;;;;;0.70;0.50;;;7.30;77.30;7.40;94523.00;;;;5051907;28;20188;-86
2022/01/09 05:29:57;;;;;;;0.97;0.40;;;7.30;77.30;7.50;94531.00;;;;5051019;28;20224;-86
2022/01/09 05:32:24;;;;;;;0.40;0.40;;;7.30;77.20;7.50;94525.00;;;;5051039;28;20231;-85
2022/01/09 05:34:52;;;;;;;1.47;0.40;;;7.40;77.20;7.60;94521.00;;;;5045512;28;20192;-86
2022/01/09 05:37:19;;;;;;;0.43;0.20;;;7.40;77.30;7.60;94525.00;;;;5051527;28;20188;-85
2022/01/09 05:39:47;;;;;;;0.40;0.30;;;7.50;77.20;7.60;94524.00;;;;5052297;28;20220;-85
2022/01/09 05:42:15;;;;;;;0.33;0.17;;;7.60;77.30;7.60;94523.00;;;;5051523;28;20189;-85
2022/01/09 05:44:44;;;;;;;0.10;0.10;;;7.50;77.10;7.70;94524.00;;;;5051038;28;20197;-85
2022/01/09 05:47:11;;;;;;;0.57;0.30;;;7.50;77.00;7.70;94517.00;;;;5050946;28;20193;-85
2022/01/09 05:49:38;;;;;;;0.10;0.10;;;7.60;77.00;7.70;94521.00;;;;5050463;28;20709;-86
2022/01/09 05:52:06;;;;;;;0.10;0.10;;;7.60;76.90;7.70;94523.00;;;;5051143;28;20689;-85
2022/01/09 05:54:33;;;;;;;0.10;0.10;;;7.60;77.00;7.70;94522.00;;;;5051331;28;20196;-85
2022/01/09 05:57:00;;;;;;;0.40;0.13;;;7.60;77.00;7.80;94522.00;;;;5050692;28;20196;-86
2022/01/09 05:59:27;;;;;;;0.20;0.10;;;7.60;77.00;7.80;94534.00;;;;5051298;28;20209;-85
2022/01/09 06:01:57;;;;;;;0.20;0.20;;;7.70;77.00;7.80;94528.00;;;;5051330;28;20199;-85
2022/01/09 06:04:25;;;;;;;0.30;0.20;;;7.70;77.10;7.80;94527.00;;;;5044525;28;20195;-85
2022/01/09 06:06:52;;;;;;;0.10;0.10;;;7.70;77.20;7.80;94532.00;;;;5053603;28;20200;-85
2022/01/09 06:09:19;;;;;;;0.10;0.10;;;7.80;77.30;7.90;94536.00;;;;5054461;28;20215;-85
2022/01/09 06:11:45;;;;;;;0.40;0.10;;;7.80;77.40;7.90;94530.00;;;;5054557;28;20215;-85
2022/01/09 06:14:13;;;;;;;0.30;0.20;;;7.80;77.40;7.90;94530.00;;;;5054955;28;20665;-85
2022/01/09 06:16:40;;;;;;;0.20;0.10;;;7.80;77.40;8.00;94542.00;;;;5055041;28;20196;-85
2022/01/09 06:19:08;;;;;;;0.33;0.17;;;7.90;77.40;8.00;94537.00;;;;5054951;28;20189;-85
2022/01/09 06:21:35;;;;;;;0.20;0.20;;;7.90;77.40;8.10;94533.00;;;;5055141;28;20298;-86
2022/01/09 06:24:02;;;;;;;0.70;0.20;;;8.00;77.50;8.10;94537.00;;;;5054721;28;20211;-85
2022/01/09 06:26:30;;;;;;;0.10;0.10;;;8.00;77.40;8.10;94541.00;;;;5054679;28;20192;-85
2022/01/09 06:28:57;;;;;;;0.57;0.13;;;8.10;77.40;8.20;94545.00;;;;5054556;28;20643;-86
2022/01/09 06:31:24;;;;;;;0.10;0.10;;;8.20;77.40;8.20;94541.00;;;;5054528;28;20195;-85
2022/01/09 06:33:51;;;;;;;0.30;0.17;;;8.20;77.10;8.20;94543.00;;;;5053919;28;20225;-86
2022/01/09 06:36:19;;;;;;;0.10;0.10;;;8.20;77.20;8.30;94549.00;;;;5054835;28;20196;-85
2022/01/09 06:38:46;;;;;;;0.10;0.10;;;8.30;77.20;8.30;94565.00;;;;5054096;28;20681;-85
2022/01/09 06:41:13;;;;;;;0.10;0.10;;;8.30;77.20;8.40;94553.00;;;;5053947;28;20228;-85
2022/01/09 06:43:40;;;;;;;0.00;0.00;;;8.40;77.10;8.40;94568.00;;;;5054849;28;20196;-85
2022/01/09 06:46:08;;;;;;;0.20;0.20;;;8.40;76.80;8.50;94562.00;;;;5054441;28;20199;-85
2022/01/09 06:48:35;;;;;;;0.10;0.10;;;8.40;76.80;8.50;94573.00;;;;5054531;28;20349;-85
2022/01/09 06:51:02;;;;;;;0.20;0.20;;;8.50;76.90;8.60;94569.00;;;;5047296;28;20232;-85
2022/01/09 06:53:30;;;;;;;0.10;0.10;;;8.50;76.50;8.60;94577.00;;;;5040666;28;20487;-85
2022/01/09 06:55:57;;;;;;;0.00;0.00;;;8.60;76.40;8.60;94567.00;;;;5054073;28;20203;-86
2022/01/09 06:58:24;;;;;;;0.00;0.00;;;8.60;76.10;8.60;94582.00;;;;5054136;28;20647;-85
2022/01/09 07:00:52;;;;;;;0.13;0.13;;;8.60;76.20;8.60;94592.00;;;;5053827;28;20216;-86
2022/01/09 07:03:19;;;;;;;0.20;0.20;;;8.70;76.20;8.60;94586.00;;;;5054223;28;20243;-86
2022/01/09 07:05:46;;;;;;;0.20;0.20;;;8.70;75.60;8.60;94593.00;;;;5053940;28;20189;-85
2022/01/09 07:08:13;;;;;;;0.10;0.10;;;8.70;75.90;8.70;94603.00;;;;5054441;28;20222;-85
2022/01/09 07:10:42;;;;;;;0.10;0.00;;;8.70;75.90;8.70;94605.00;;;;5053659;28;20217;-84
2022/01/09 07:13:09;;;;;;;0.73;0.50;;;8.70;75.90;8.70;94614.00;;;;5053803;28;20216;-85
2022/01/09 07:15:36;;;;;;;0.50;0.50;;;8.80;76.00;8.70;94622.00;;;;5053262;28;20583;-85
2022/01/09 07:18:03;;;;;;;0.80;0.80;;;8.80;75.90;8.70;94624.00;;;;5053261;28;20208;-84
2022/01/09 07:20:30;;;;;;;0.57;0.57;;;8.80;75.70;8.70;94626.00;;;;5053375;28;20213;-85
2022/01/09 07:22:57;;;;;;;0.50;0.40;;;8.80;75.80;8.70;94642.00;;;;5052550;28;20196;-84
2022/01/09 07:25:24;;;;;;;0.13;0.13;;;8.80;75.60;8.70;94634.00;;;;5054575;28;20200;-86
2022/01/09 07:27:52;;;;;;;0.73;0.20;;;8.80;75.80;8.70;94645.00;;;;5053520;28;20569;-85
2022/01/09 07:30:19;;;;;;;0.27;0.20;;;8.80;75.80;8.70;94654.00;;;;5038369;28;20581;-84
2022/01/09 07:32:46;;;;;;;0.10;0.10;;;8.70;75.80;8.70;94659.00;;;;5053866;28;20220;-85
2022/01/09 07:35:13;;;;;;;0.10;0.10;;;8.70;75.80;8.70;94677.00;;;;5053132;28;20204;-84
2022/01/09 07:37:40;;;;;;;0.10;0.10;;;8.70;75.70;8.60;94681.00;;;;5056034;28;20203;-87
2022/01/09 07:40:09;;;;;;;0.50;0.20;;;8.70;75.90;8.60;94683.00;;;;5053480;28;20223;-85
2022/01/09 07:42:36;;;;;;;0.20;0.20;;;8.70;76.00;8.60;94693.00;;;;5052860;28;20193;-85
2022/01/09 07:45:06;;;;;;;0.10;0.10;;;8.70;75.90;8.50;94690.00;;;;5052338;28;20203;-84
2022/01/09 07:47:34;;;;;;;0.37;0.20;;;8.70;76.00;8.50;94716.00;;;;5052000;28;20193;-84
2022/01/09 07:50:01;;;;;;;0.10;0.10;;;8.60;75.90;8.50;94724.00;;;;5047012;28;20224;-85
2022/01/09 07:52:28;;;;;;;0.10;0.10;;;8.60;76.10;8.50;94748.00;;;;5052934;28;20213;-83
2022/01/09 07:54:55;;;;;;;0.00;0.00;;;8.60;75.90;8.50;94733.00;;;;5053774;28;20197;-84
2022/01/09 07:57:22;;;;;;;0.10;0.10;;;8.60;76.10;8.50;94750.00;;;;5053097;28;20192;-84
2022/01/09 07:59:49;;;;;;;0.10;0.10;;;8.60;76.20;8.50;94754.00;;;;5052964;28;20251;-83
2022/01/09 08:02:17;;;;;;;0.20;0.20;;;8.60;76.10;8.50;94760.00;;;;5053650;28;20196;-84
2022/01/09 08:04:44;;;;;;;0.07;0.07;;;8.50;76.20;8.40;94760.00;;;;5038709;28;20300;-85
2022/01/09 08:07:11;;;;;;;0.10;0.10;;;8.50;76.10;8.40;94768.00;;;;5051518;28;20188;-84
2022/01/09 08:09:39;;;;;;;0.10;0.10;;;8.40;76.20;8.30;94774.00;;;;5053797;28;20247;-84
2022/01/09 08:12:10;;;;;;;0.10;0.10;;;8.40;76.30;8.20;94785.00;;;;5046798;28;20280;-83
2022/01/09 08:14:37;;;;;;;0.20;0.20;;;8.30;76.30;8.10;94788.00;;;;5052161;28;20267;-84
2022/01/09 08:17:05;;;;;;;2.27;2.07;;;8.30;76.60;8.10;94793.00;;;;5052832;28;20662;-84
2022/01/09 08:19:35;;;;;;;0.80;0.70;;;8.20;76.50;8.00;94815.00;;;;5053362;28;20772;-84
2022/01/09 08:22:03;;;;;;;0.20;0.20;;;8.10;76.70;7.90;94819.00;;;;5053337;28;20754;-86
2022/01/09 08:24:30;;;;;;;0.10;0.10;;;8.10;76.80;7.90;94820.00;;;;5050139;28;20540;-84
2022/01/09 08:26:58;;;;;;;0.30;0.20;;;8.00;76.90;7.90;94828.00;;;;5042005;28;20205;-85
2022/01/09 08:29:26;;;;;;;0.20;0.17;;;8.00;77.00;7.80;94842.00;;;;5048432;28;20216;-85
2022/01/09 08:31:53;;;;;;;0.20;0.20;;;7.90;77.90;7.80;94824.00;;;;5038129;28;20537;-84
2022/01/09 08:34:21;;;;;;;0.20;0.10;;;7.90;77.20;7.80;94841.00;;;;5043163;28;20613;-86
2022/01/09 08:36:49;;;;;;;0.30;0.20;;;7.80;77.30;7.80;94835.00;;;;5044849;28;20192;-86
2022/01/09 08:39:18;;;;;;;0.10;0.10;;;7.80;77.50;7.80;94831.00;;;;5045011;28;20219;-85
2022/01/09 08:41:45;;;;;;;0.13;0.13;;;7.80;77.70;7.80;94840.00;;;;5048425;28;20219;-86
2022/01/09 08:44:12;;;;;;;0.33;0.20;;;7.80;77.80;7.80;94851.00;;;;5046681;28;20199;-85
2022/01/09 08:46:40;;;;;;;0.30;0.23;;;7.80;77.90;7.80;94847.00;;;;5052456;28;20208;-86
2022/01/09 08:49:07;;;;;;;0.10;0.10;;;7.80;78.00;7.80;94840.00;;;;5041751;28;20197;-87
2022/01/09 08:51:35;;;;;;;0.20;0.20;;;7.80;78.20;7.80;94858.00;;;;5049655;28;20670;-86
2022/01/09 08:54:04;;;;;;;0.10;0.10;;;7.80;78.30;7.80;94858.00;;;;5049341;28;20282;-84
2022/01/09 08:56:32;;;;;;;0.07;0.07;;;7.80;78.40;7.90;94865.00;;;;5047350;28;20570;-85
2022/01/09 08:59:01;;;;;;;0.17;0.10;;;7.80;78.60;7.90;94875.00;;;;5041956;28;20247;-85
2022/01/09 09:01:28;;;;;;;0.47;0.13;;;7.80;78.70;7.90;94881.00;;;;5041043;28;20192;-86
2022/01/09 09:03:55;;;;;;;0.63;0.20;;;7.90;78.80;8.00;94880.00;;;;5048597;28;20204;-86
2022/01/09 09:06:22;;;;;;;0.13;0.13;;;7.90;78.80;8.00;94884.00;;;;5051663;28;20263;-86
2022/01/09 09:08:49;;;;;;;0.23;0.20;;;7.90;78.90;8.10;94888.00;;;;5051998;28;20193;-85
2022/01/09 09:11:18;;;;;;;0.30;0.30;;;8.00;79.10;8.10;94900.00;;;;5046546;28;20209;-86
2022/01/09 09:13:45;;;;;;;0.60;0.60;;;8.00;79.10;8.20;94908.00;;;;5043750;28;20729;-87
2022/01/09 09:16:12;;;;;;;0.40;0.40;;;8.00;79.10;8.20;94912.00;;;;5044805;28;20291;-85
2022/01/09 09:18:39;;;;;;;0.50;0.50;;;8.10;80.00;8.20;94904.00;;;;5050284;28;20192;-85
2022/01/09 09:21:06;;;;;;;0.20;0.20;;;8.10;79.30;8.20;94910.00;;;;5046762;28;20208;-86
2022/01/09 09:23:33;;;;;;;0.17;0.17;;;8.20;79.10;8.30;94924.00;;;;5040103;28;20189;-85
2022/01/09 09:26:00;;;;;;;0.60;0.13;;;8.20;79.10;8.30;94930.00;;;;5037217;28;20582;-85
2022/01/09 09:28:28;;;;;;;0.90;0.30;;;8.20;79.10;8.30;94925.00;;;;5046203;28;20189;-86
2022/01/09 09:30:55;;;;;;;0.97;0.30;;;9.00;79.40;8.40;94932.00;;;;5045139;28;20216;-86
2022/01/09 09:33:22;;;;;;;0.30;0.30;;;8.30;79.00;8.40;94946.00;;;;5046909;28;20213;-85
2022/01/09 09:35:49;;;;;;;0.30;0.30;;;8.30;79.10;8.40;94939.00;;;;5044939;28;20197;-86
2022/01/09 09:38:17;;;;;;;0.20;0.20;;;8.30;79.10;8.40;94953.00;;;;5039257;28;20195;-85
2022/01/09 09:40:44;;;;;;;0.40;0.40;;;8.30;79.20;8.50;94955.00;;;;5045499;28;20209;-85
2022/01/09 09:43:11;;;;;;;0.50;0.50;;;8.40;79.10;8.60;94959.00;;;;5050278;28;20283;-86
2022/01/09 09:45:40;;;;;;;0.30;0.20;;;8.40;79.00;8.60;94969.00;;;;5039100;28;20213;-85
2022/01/09 09:48:07;;;;;;;0.30;0.30;;;8.50;78.90;8.60;94969.00;;;;5035878;28;20185;-86
2022/01/09 09:50:34;;;;;;;0.20;0.20;;;8.50;78.80;8.60;94972.00;;;;5037147;28;20827;-87
2022/01/09 09:53:02;;;;;;;0.50;0.30;;;8.50;78.70;8.60;94974.00;;;;5045479;28;20224;-86
2022/01/09 09:55:30;;;;;;;1.50;0.20;;;8.50;78.50;8.70;94980.00;;;;5042101;28;20192;-84
2022/01/09 09:57:57;;;;;;;0.30;0.30;;;8.60;78.50;8.70;94973.00;;;;5044410;28;20196;-84
2022/01/09 10:00:25;;;;;;;0.20;0.20;;;8.60;78.50;8.70;94980.00;;;;5041649;28;20232;-84
2022/01/09 10:02:59;;;;;;;0.30;0.30;;;8.60;78.20;8.80;94984.00;;;;5043169;28;20199;-84
2022/01/09 10:05:33;;;;;;;0.53;0.30;;;8.70;78.20;8.90;94977.00;;;;5038970;28;20193;-87
2022/01/09 10:08:10;;;;;;;0.87;0.47;;;8.70;78.10;8.90;94995.00;;;;5043774;28;20284;-85
2022/01/09 10:10:39;;;;;;;1.07;0.60;;;8.80;78.20;9.00;95005.00;;;;5037697;28;20220;-82
2022/01/09 10:13:09;;;;;;;0.40;0.40;;;8.80;78.50;9.10;95004.00;;;;5053160;28;22543;-82
2022/01/09 10:15:58;;;;;;;0.27;0.20;;;8.90;78.20;9.20;94987.00;;;;5053071;28;20604;-84
2022/01/09 10:18:47;;;;;;;0.60;0.20;;;9.00;78.10;9.20;94993.00;;;;5052799;28;20296;-82
2022/01/09 10:21:18;;;;;;;0.20;0.20;;;9.00;77.90;9.30;94993.00;;;;5053863;28;20229;-82
2022/01/09 10:26:53;;;;;;;0.60;0.60;;;9.10;77.60;9.30;95001.00;;;;5028655;28;20288;-84
2022/01/09 10:29:21;;;;;;;1.10;0.50;;;9.20;77.50;9.30;94992.00;;;;5033131;28;20213;-84
2022/01/09 10:31:50;;;;;;;0.77;0.40;;;9.10;76.70;9.40;95000.00;;;;5033057;28;20194;-84
2022/01/09 10:34:46;;;;;;;0.40;0.40;;;9.30;76.60;9.40;95017.00;;;;5038376;28;20220;-85
2022/01/09 10:37:43;;;;;;;0.40;0.40;;;9.30;76.50;9.40;95011.00;;;;5052322;28;20208;-83
2022/01/09 10:40:19;;;;;;;2.17;0.40;;;9.30;75.80;9.40;95008.00;;;;5046124;28;20213;-85
2022/01/09 10:43:00;;;;;;;1.40;0.60;;;9.30;76.30;9.40;95017.00;;;;5033924;28;20213;-84
2022/01/09 10:45:28;;;;;;;1.00;0.30;;;9.30;75.80;9.30;95021.00;;;;5043361;28;20187;-84
2022/01/09 10:48:06;;;;;;;0.63;0.50;;;9.30;75.50;9.30;95018.00;;;;5052044;28;20197;-84
2022/01/09 10:50:39;;;;;;;1.27;0.77;;;9.30;74.90;9.30;95016.00;;;;5051564;28;20216;-84
2022/01/09 10:53:30;;;;;;;1.70;0.70;;;9.30;75.20;9.20;95019.00;;;;5065932;28;20204;-84
2022/01/09 10:56:15;;;;;;;0.50;0.50;;;9.30;74.40;9.20;95019.00;;;;5071292;28;20291;-84
2022/01/09 10:58:45;;;;;;;0.93;0.70;;;9.30;75.00;9.20;95035.00;;;;5052497;28;20193;-89
2022/01/09 11:01:22;;;;;;;0.57;0.50;;;9.20;75.10;9.20;95033.00;;;;5035491;28;20221;-85
2022/01/09 11:03:52;;;;;;;0.63;0.50;;;9.30;74.90;9.30;95028.00;;;;5032915;28;20197;-85
2022/01/09 11:06:21;;;;;;;2.17;0.50;;;9.20;75.30;9.30;95029.00;;;;5042269;28;20567;-83
2022/01/09 11:08:49;;;;;;;0.83;0.33;;;9.30;75.30;9.30;95031.00;;;;5035553;28;20201;-83
2022/01/09 11:11:29;;;;;;;1.00;0.60;;;9.30;75.30;9.40;95021.00;;;;5035000;28;20221;-86
2022/01/09 11:14:01;;;;;;;0.67;0.60;;;9.30;75.30;9.40;95028.00;;;;5034780;28;20248;-84
2022/01/09 11:16:37;;;;;;;0.43;0.40;;;9.30;75.20;9.50;95032.00;;;;5035085;28;20192;-83
2022/01/09 11:19:10;;;;;;;1.53;0.90;;;9.30;75.20;9.50;95029.00;;;;5035355;28;20521;-83